Villas de la Sabana, Puerto Rico
Current Conditions -  °F | °C
As of 11:50 PM on Saturday 24 Jan 2015 (Local Time) from TJPS Reporting Station
Clear Clear  
Wind Chill: 24°   Ceiling: Unl
Heat Index: 24°   Visibility: 10mi
Dew Point: 21°   Wind: 0mph
Humidity: 83%   Direction: NA
Pressure: 30.01"   Gusts: NA
Location:  18.4548°N, 66.5389°W
Report Text: TJPS 250350Z 00000KT 10SM SKC 24/21 A3001
Loading
Personal Weather Stations






























Interactive Weather Map New forecast layout! Learn more

10-Day Weather Forecast

Advertisements
Track Severe Weather on mobile